Los Antiguos, Argentina
Current Conditions -  °F | °C
As of 7:00 PM on Wednesday 22 Oct 2014 (Local Time) from SCBA Reporting Station
Scattered Clouds Scattered Clouds  
Wind Chill: 50°   Ceiling: Unl
Heat Index: 50°   Visibility: 6mi
Dew Point: 39°   Wind: 21mph
Humidity: 66%   Direction: 310°NW
Pressure: 30.03"   Gusts: NA
Location:  46.55°S, 71.62°W
Report Text: SCBA 222200Z 31018KT 9999 SCT040 10/04 Q1017
Loading
Personal Weather Stations






























Interactive Weather Map
Tropical Storm Tracking
New forecast layout! Learn more

10-Day Weather Forecast

Advertisements
Track Severe Weather on mobile